Terminal Aerodrome Forecast
Issued by NWS

Home | Current Version | Previous Version | Text Only | Print | Product List | Glossary Off
Versions: 1 2 3 4 5 6 7 8 9 10 11 12 13 14 15 16 17 18 19 20 21 22 23 24 25 26 27 28

860
FTUS43 KLOT 260303 AAA
TAFORD
TAF AMD
KORD 260303Z 2603/2706 16010KT P6SM BKN150
     FM261200 18014G20KT P6SM VCSH OVC040 PROB30 2613/2616 4SM -TSRA
      OVC025CB
     FM262200 20015G24KT 6SM SHRA OVC030
      TEMPO 2622/2702 3SM TSRA OVC020CB
     FM270200 25011KT 3SM SHRA OVC018=

USA.gov is the U.S. government's official web portal to all federal, state and local government web resources and services.